Emmanuel Wakaso

Chefscout - Hearts of Oak
11 Mär 2027
Donnerstag
Verarbeitung

Persönlichkeit

Anpassungsfähigkeit (20) Ehrgeiz (5) Kontroverse (1) Loyalität (18) Druck (11) Professionalität (9) Fairness (9) Temperament (5)

Profil

Trainerstil Demokratisch
Lizenz Kontinentale Pro
Entschlossenheit 5
Menschenführung 9
Motivation 4
Disziplin 4
Arbeitszufriedenheit
86%
Ermüdung
0%
Rolle Chefscout
Gehalt 63.5K p/W
Vertrag 14.03.2027

Leistung

Verhalten Gut
Trainingseffektivität
28%
Spielerentwicklung
25%
Verletzungsprävention
20%
Taktische Umsetzung
35%

Letzte Ereignisse

Vertragsverhandlung begonnen jetzt
Spieler begutachtet jetzt
Nahm an einer Scouting-Besprechung teil jetzt
Vertragsverhandlung begonnen jetzt
Spieler begutachtet jetzt
Spieler begutachtet 7T her
Vertragsverhandlung begonnen 7T her
Spieler begutachtet 7T her

Aktuell beobachtet

78
Spieler Verein Status Fähigkeit Vertrauen Beobachtet Zuletzt beobachtet Letzte Stimme
Rivaldo Ngcobo Black Aces Aktiv 108 / 109 40% 1 10.03.2027 -
Nicolò Savona Nottingham Forest Aktiv 129 / 161 40% 1 10.03.2027 -
Thalente Mbatha Orlando Pirates Aktiv 127 / 98 40% 2 09.03.2027 -
Siyanda Msani University of Pretoria Aktiv 108 / 108 40% 2 09.03.2027 -
Kyle Jurgens Maritzburg United Aktiv 92 / 111 40% 5 08.03.2027 -
Tristan Crama Millwall Aktiv 131 / 118 40% 1 08.03.2027 -
Thabiso Monyane Kaizer Chiefs Aktiv 89 / 120 40% 2 07.03.2027 -
Rodney Maphangule Polokwane City Aktiv 103 / 94 40% 3 07.03.2027 -
Themba Mokotjo Platinum Stars Aktiv 106 / 104 40% 1 06.03.2027 -
Mandla Erasmus SuperSport United Aktiv 125 / 114 40% 2 05.03.2027 -
Tim Iroegbunam Hull City Aktiv 137 / 133 40% 2 03.03.2027 -
Evidence Dala Black Aces Aktiv 114 / 109 40% 1 03.03.2027 -
Josh Neufville Bradford City Aktiv 100 / 98 40% 1 02.03.2027 -
Gift Ngcobo Ajax Cape Town Aktiv 128 / 122 40% 1 02.03.2027 -
Erick Hlatshwayo Ajax Cape Town Aktiv 100 / 122 40% 4 08.02.2027 -
Zech Medley Fleetwood Town Aktiv 108 / 76 40% 1 08.02.2027 -
Keenan Phillips Golden Arrows Aktiv 103 / 83 40% 2 05.02.2027 -
Andile Manyama SuperSport United Aktiv 116 / 109 40% 1 04.02.2027 -
Khama Manyama Ajax Cape Town Aktiv 104 / 92 40% 1 04.02.2027 -
Daniel Phillips Stevenage Aktiv 102 / 106 40% 1 03.02.2027 -
Keagan Hlatshwayo Black Aces Aktiv 74 / 92 40% 1 03.02.2027 -
Aubrey Modiba Mamelodi Sundowns Aktiv 146 / 130 40% 1 01.02.2027 -
Álex Centelles Levski Aktiv 120 / 134 40% 1 18.01.2027 -
Williams Manyama SuperSport United Aktiv 112 / 106 40% 3 11.01.2027 -
Brooklyn Poggenpoel Maritzburg United Aktiv 124 / 100 40% 1 11.01.2027 -
Yaw Mensah Hasaacas Aktiv 92 / 75 51% 1 01.01.2027 -
Gustavo Sliema Wanderers Aktiv 100 / 106 40% 1 31.12.2026 -
Luke Thomas Leicester City Aktiv 131 / 136 40% 2 30.12.2026 -
Sidiki Chérif Coventry City Aktiv 143 / 141 40% 1 30.12.2026 -
Jordan Lotomba Bloemfontein Celtic Aktiv 130 / 105 40% 1 27.12.2026 -
Aljoša Matko Ujpest Verloren 130 / 136 40% 2 26.12.2026 -
Tshidiso Monamodi Floriana Aktiv 94 / 102 40% 1 25.12.2026 -
Marcelo Allende Mamelodi Sundowns Aktiv 116 / 114 40% 2 22.12.2026 -
Andre de Jong Orlando Pirates Aktiv 107 / 110 40% 1 18.12.2026 -
Sinoxolo Kwayiba Chippa United Aktiv 116 / 97 40% 3 16.12.2026 -
Happy Mashiane Bloemfontein Celtic Aktiv 106 / 91 40% 1 16.12.2026 -
Everton Bala Levski Aktiv 116 / 114 40% 1 15.12.2026 -
Michal Faško MSK Zilina Aktiv 106 / 117 40% 1 15.12.2026 -
Mduduzi Shabalala Kaizer Chiefs Aktiv 111 / 125 40% 4 14.12.2026 -
Siyanda Ndlovu Bloemfontein Celtic Aktiv 128 / 112 40% 2 13.12.2026 -
Itumeleng Zungu Free State Stars Aktiv 118 / 113 40% 1 11.12.2026 -
Simon Ramabu Polokwane City Aktiv 87 / 95 40% 2 10.12.2026 -
Velemseni Ndwandwe Golden Arrows Aktiv 101 / 102 40% 1 09.12.2026 -
Goodman Mosele Chippa United Aktiv 119 / 107 40% 1 09.12.2026 -
Fawaaz Basadien Mamelodi Sundowns Aktiv 102 / 123 40% 1 08.12.2026 -
Yeangel Montero Naxxar Lions Aktiv 89 / 85 40% 2 03.12.2026 -
Evidence Mahlangu Black Aces Aktiv 79 / 103 40% 1 03.12.2026 -
Haashim Domingo Maritzburg United Aktiv 93 / 125 40% 2 02.12.2026 -
Keagan Mothiba SuperSport United Aktiv 114 / 110 40% 4 01.12.2026 -
George Earthy Reading Aktiv 119 / 109 40% 3 01.12.2026 -
Dean Erasmus Ajax Cape Town Aktiv 84 / 94 40% 1 30.11.2026 -
Dean Erasmus Platinum Stars Aktiv 71 / 71 40% 1 29.11.2026 -
Teboho Tlolane Golden Arrows Aktiv 104 / 101 40% 2 28.11.2026 -
Marcus Browne AFC Wimbledon Aktiv 107 / 94 40% 1 28.11.2026 -
Bruno Gomes Valletta Aktiv 112 / 119 40% 1 26.11.2026 -
Gabriel Jesus Barcelona Aktiv 157 / 159 40% 1 23.11.2026 -
Thabo Nodada Maritzburg United Aktiv 120 / 105 40% 3 22.11.2026 -
Tom Pearce Chesterfield Aktiv 101 / 96 40% 1 22.11.2026 -
Thulani Erasmus Platinum Stars Aktiv 112 / 107 40% 2 20.11.2026 -
Thabiso Lebitso Orlando Pirates Aktiv 95 / 90 40% 1 20.11.2026 -
Promise Omochere Bristol Rovers Aktiv 90 / 107 40% 1 19.11.2026 -
Nhlanhla Zwane Golden Arrows Aktiv 104 / 75 40% 1 14.11.2026 -
Jordan Roberts Stevenage Aktiv 117 / 127 40% 1 13.11.2026 -
Reda Khadra Qarabag Aktiv 116 / 121 40% 1 10.11.2026 -
Bandile Shandu Orlando Pirates Aktiv 122 / 82 40% 1 06.11.2026 -
Josh Eccles Coventry City Aktiv 129 / 124 40% 2 02.11.2026 -
Ronaldo Maarman University of Pretoria Aktiv 106 / 92 40% 1 02.11.2026 -
Lebohang Maboe Kaizer Chiefs Aktiv 104 / 125 40% 3 20.10.2026 -
Abbubaker Mobara Chippa United Aktiv 122 / 101 40% 1 19.10.2026 -
Yves Bissouma Tottenham Aktiv 147 / 144 40% 1 19.10.2026 -
Luvoyo Phewa University of Pretoria Aktiv 107 / 78 40% 1 11.10.2026 -
Lewis Morgan SuperSport United Aktiv 133 / 127 40% 1 11.10.2026 -
Tshepang Moremi Orlando Pirates Aktiv 119 / 90 40% 1 10.10.2026 -
Rodrigo Bentancur Tottenham Aktiv 129 / 122 40% 1 10.10.2026 -
Edson Castillo Kaizer Chiefs Aktiv 115 / 99 40% 1 07.10.2026 -
Sifiso Mokoena Black Aces Aktiv 97 / 90 40% 1 08.09.2026 -
João Gomes Aston Villa Aktiv 156 / 150 40% 1 17.08.2026 -
Lasse Sørensen Huddersfield Town Aktiv 97 / 117 40% 1 11.08.2026 -